Time;durP1;ratioP1;P1;durP2;ratioP2;P2;SDS_P1;SDS_P2;PMS_P1;PMS_P2;Temp;Humidity;BMP_temperature;BMP_pressure;BME280_temperature;BME280_humidity;BME280_pressure;Samples;Min_cycle;Max_cycle;Signal;HPM_P1;HPM_P2
2022/11/27 00:00:13;;;;;;;85.10;37.90;;;;;;;5.09;100.00;101652.83;103197;1283;25278;-58
2022/11/27 00:03:05;;;;;;;80.90;34.10;;;;;;;5.06;100.00;101654.51;103050;1282;24314;-59
2022/11/27 00:05:36;;;;;;;78.00;33.20;;;;;;;5.05;100.00;101657.38;103133;1304;22478;-59
2022/11/27 00:08:07;;;;;;;80.30;33.30;;;;;;;5.03;100.00;101657.39;103174;1281;25359;-59
2022/11/27 00:10:39;;;;;;;74.50;32.20;;;;;;;5.04;100.00;101651.37;103262;1290;22606;-58
2022/11/27 00:13:10;;;;;;;80.60;35.30;;;;;;;5.03;100.00;101651.61;103164;1281;24417;-59
2022/11/27 00:15:44;;;;;;;84.80;35.20;;;;;;;5.02;100.00;101660.48;103067;1296;22601;-59
2022/11/27 00:18:15;;;;;;;78.80;32.10;;;;;;;5.00;100.00;101661.60;103153;1297;22604;-59
2022/11/27 00:20:47;;;;;;;72.00;31.90;;;;;;;5.01;100.00;101662.92;103147;1287;25207;-59
2022/11/27 00:23:18;;;;;;;71.50;30.60;;;;;;;5.03;100.00;101664.27;103230;1280;23038;-59
2022/11/27 00:25:53;;;;;;;77.80;30.50;;;;;;;5.02;100.00;101666.96;103213;1281;22474;-59
2022/11/27 00:28:25;;;;;;;74.80;31.10;;;;;;;5.02;100.00;101665.63;103242;1277;22525;-59
2022/11/27 00:31:01;;;;;;;74.60;28.80;;;;;;;5.03;100.00;101670.38;103192;1281;22595;-58
2022/11/27 00:33:33;;;;;;;73.40;29.90;;;;;;;5.04;100.00;101671.05;103164;1274;22469;-59
2022/11/27 00:36:06;;;;;;;72.40;29.20;;;;;;;5.05;100.00;101674.60;103308;1278;22497;-59
2022/11/27 00:38:38;;;;;;;76.40;30.40;;;;;;;5.05;100.00;101675.09;103271;1297;26502;-59
2022/11/27 00:41:19;;;;;;;69.70;30.10;;;;;;;5.04;100.00;101673.83;103235;1305;22489;-58
2022/11/27 00:43:51;;;;;;;72.60;27.80;;;;;;;5.03;100.00;101672.81;103216;1285;22587;-59
2022/11/27 00:46:28;;;;;;;73.00;29.80;;;;;;;5.01;100.00;101675.36;103350;1277;22473;-60
2022/11/27 00:49:04;;;;;;;79.70;30.00;;;;;;;5.00;100.00;101680.90;103185;1303;23146;-59
2022/11/27 00:51:35;;;;;;;71.60;29.60;;;;;;;4.99;100.00;101676.70;103127;1281;22592;-60
2022/11/27 00:54:08;;;;;;;76.80;28.60;;;;;;;4.98;100.00;101680.04;103240;1281;22476;-57
2022/11/27 00:56:42;;;;;;;69.00;29.80;;;;;;;4.98;100.00;101680.27;103254;1281;22468;-58
2022/11/27 00:59:13;;;;;;;71.90;27.40;;;;;;;4.98;100.00;101684.07;103253;1293;24427;-58
2022/11/27 01:01:46;;;;;;;72.70;29.00;;;;;;;4.97;100.00;101678.45;103306;1299;22460;-58
2022/11/27 01:04:18;;;;;;;73.60;28.20;;;;;;;4.98;100.00;101679.48;103243;1288;24348;-60
2022/11/27 01:06:49;;;;;;;76.20;30.50;;;;;;;4.97;100.00;101678.61;103188;1281;26274;-60
2022/11/27 01:09:21;;;;;;;73.50;28.40;;;;;;;4.95;100.00;101679.27;103254;1291;23883;-59
2022/11/27 01:11:52;;;;;;;67.30;27.60;;;;;;;4.96;100.00;101672.07;103148;1288;23221;-58
2022/11/27 01:14:23;;;;;;;69.60;28.30;;;;;;;4.96;100.00;101671.74;103259;1281;24376;-59
2022/11/27 01:16:55;;;;;;;68.70;28.60;;;;;;;4.98;100.00;101672.85;103207;1288;22477;-56
2022/11/27 01:19:27;;;;;;;64.30;26.10;;;;;;;4.99;100.00;101676.31;103497;1281;22970;-59
2022/11/27 01:21:59;;;;;;;77.70;30.90;;;;;;;4.99;100.00;101680.13;103201;1274;24239;-57
2022/11/27 01:24:31;;;;;;;77.80;28.90;;;;;;;4.98;100.00;101675.63;103218;1281;24156;-59
2022/11/27 01:27:02;;;;;;;81.60;30.40;;;;;;;4.95;100.00;101671.20;103313;1291;22483;-59
2022/11/27 01:29:34;;;;;;;77.10;30.50;;;;;;;4.94;100.00;101671.29;103277;1274;25555;-58
2022/11/27 01:32:05;;;;;;;72.30;29.10;;;;;;;4.91;100.00;101670.35;103253;1302;24278;-58
2022/11/27 01:34:37;;;;;;;81.10;31.20;;;;;;;4.88;100.00;101671.73;103185;1299;24354;-59
2022/11/27 01:37:08;;;;;;;80.90;28.40;;;;;;;4.88;100.00;101675.61;103153;1281;22505;-57
2022/11/27 01:39:40;;;;;;;76.00;30.00;;;;;;;4.89;100.00;101673.21;103080;1304;25332;-58
2022/11/27 01:42:12;;;;;;;74.70;29.90;;;;;;;4.90;100.00;101675.02;102270;1305;1255195;-58
2022/11/27 01:44:55;;;;;;;70.80;27.20;;;;;;;4.90;100.00;101674.71;103122;1275;22977;-59
2022/11/27 01:47:38;;;;;;;80.00;33.50;;;;;;;4.91;100.00;101675.27;103227;1302;24322;-57
2022/11/27 01:50:19;;;;;;;81.80;32.50;;;;;;;4.91;100.00;101676.98;103200;1285;25332;-58
2022/11/27 01:52:55;;;;;;;79.10;30.90;;;;;;;4.89;100.00;101672.73;103180;1295;22568;-58
2022/11/27 01:55:33;;;;;;;72.50;29.00;;;;;;;4.89;100.00;101673.45;103234;1287;22474;-56
2022/11/27 01:58:08;;;;;;;77.40;30.60;;;;;;;4.90;100.00;101665.08;103194;1274;25283;-59
2022/11/27 02:00:40;;;;;;;75.90;28.00;;;;;;;4.90;100.00;101660.25;103230;1274;22478;-58
2022/11/27 02:03:12;;;;;;;79.20;33.20;;;;;;;4.91;100.00;101657.94;103187;1281;22491;-58
2022/11/27 02:05:43;;;;;;;84.60;34.70;;;;;;;4.89;100.00;101655.73;103118;1281;25333;-59
2022/11/27 02:08:17;;;;;;;83.50;32.10;;;;;;;4.87;100.00;101659.16;103154;1280;23944;-57
2022/11/27 02:10:53;;;;;;;82.80;31.90;;;;;;;4.87;100.00;101660.90;103171;1280;23875;-59
2022/11/27 02:13:30;;;;;;;73.90;30.50;;;;;;;4.87;100.00;101667.14;103139;1281;25369;-58
2022/11/27 02:16:12;;;;;;;85.10;31.70;;;;;;;4.87;100.00;101669.04;103057;1297;22466;-59
2022/11/27 02:18:54;;;;;;;75.60;29.00;;;;;;;4.87;100.00;101670.30;103164;1280;22483;-58
2022/11/27 02:21:39;;;;;;;80.70;33.50;;;;;;;4.87;100.00;101669.05;103208;1282;23919;-59
2022/11/27 02:24:47;;;;;;;88.90;34.20;;;;;;;4.86;100.00;101669.99;103168;1285;25281;-59
2022/11/27 02:27:50;;;;;;;78.20;30.30;;;;;;;4.85;100.00;101672.63;103188;1281;25201;-59
2022/11/27 02:30:23;;;;;;;90.10;32.80;;;;;;;4.86;100.00;101671.42;102809;1302;22485;-58
2022/11/27 02:32:59;;;;;;;86.00;33.10;;;;;;;4.87;100.00;101674.89;102654;1286;22486;-58
2022/11/27 02:35:36;;;;;;;90.70;32.00;;;;;;;4.87;100.00;101674.02;102602;1287;22496;-58
2022/11/27 02:38:13;;;;;;;86.90;33.30;;;;;;;4.87;100.00;101675.77;102690;1287;23058;-59
2022/11/27 02:40:52;;;;;;;82.50;31.80;;;;;;;4.87;100.00;101678.52;102759;1311;22493;-59
2022/11/27 02:43:28;;;;;;;80.10;29.50;;;;;;;4.88;100.00;101675.36;102730;1303;24411;-58
2022/11/27 02:46:01;;;;;;;68.70;28.60;;;;;;;4.88;100.00;101667.45;102735;1287;25591;-58
2022/11/27 02:48:35;;;;;;;76.80;29.00;;;;;;;4.89;100.00;101663.73;102729;1283;22632;-58
2022/11/27 02:51:08;;;;;;;73.80;29.80;;;;;;;4.90;100.00;101667.77;102660;1287;22617;-58
2022/11/27 02:53:43;;;;;;;69.10;27.90;;;;;;;4.90;100.00;101665.14;102712;1280;22599;-58
2022/11/27 02:56:20;;;;;;;76.30;30.90;;;;;;;4.91;100.00;101659.05;102662;1287;22496;-58
2022/11/27 02:58:55;;;;;;;72.30;28.80;;;;;;;4.92;100.00;101657.55;102662;1273;25884;-59
2022/11/27 03:01:31;;;;;;;79.00;33.20;;;;;;;4.90;100.00;101652.10;102707;1286;22531;-58
2022/11/27 03:04:06;;;;;;;79.60;29.90;;;;;;;4.88;100.00;101650.54;102613;1287;22543;-58
2022/11/27 03:06:41;;;;;;;83.00;31.20;;;;;;;4.87;100.00;101651.41;102708;1286;25414;-57
2022/11/27 03:09:18;;;;;;;70.00;28.50;;;;;;;4.85;100.00;101652.85;102991;1298;24262;-59
2022/11/27 03:11:50;;;;;;;74.60;28.30;;;;;;;4.87;100.00;101646.20;103150;1302;23376;-60
2022/11/27 03:14:23;;;;;;;75.10;28.40;;;;;;;4.86;100.00;101632.20;103191;1282;22485;-59
2022/11/27 03:17:06;;;;;;;72.80;28.30;;;;;;;4.84;100.00;101642.98;103212;1306;26600;-57
2022/11/27 03:19:43;;;;;;;78.40;30.60;;;;;;;4.84;100.00;101655.87;103212;1300;22476;-58
2022/11/27 03:22:16;;;;;;;73.70;31.30;;;;;;;4.81;100.00;101654.92;103205;1274;22466;-59
2022/11/27 03:24:49;;;;;;;84.00;32.30;;;;;;;4.82;100.00;101656.59;103148;1281;22473;-58
2022/11/27 03:27:30;;;;;;;80.40;30.00;;;;;;;4.81;100.00;101655.02;103227;1281;22462;-57
2022/11/27 03:30:05;;;;;;;77.60;30.90;;;;;;;4.80;100.00;101657.07;103298;1274;23224;-56
2022/11/27 03:32:37;;;;;;;78.80;30.40;;;;;;;4.81;100.00;101658.34;103288;1280;22471;-59
2022/11/27 03:35:12;;;;;;;78.40;31.50;;;;;;;4.79;100.00;101659.38;103271;1280;22465;-58
2022/11/27 03:37:44;;;;;;;79.10;30.40;;;;;;;4.76;100.00;101655.20;103260;1286;25241;-59
2022/11/27 03:40:17;;;;;;;84.50;32.90;;;;;;;4.74;100.00;101652.77;103151;1274;25319;-59
2022/11/27 03:42:58;;;;;;;88.70;33.80;;;;;;;4.74;100.00;101650.23;103113;1305;22495;-58
2022/11/27 03:45:38;;;;;;;81.90;32.00;;;;;;;4.73;100.00;101647.55;103176;1273;25384;-59
2022/11/27 03:48:23;;;;;;;74.20;29.50;;;;;;;4.77;100.00;101650.37;103136;1281;25327;-58
2022/11/27 03:51:07;;;;;;;76.40;29.90;;;;;;;4.82;100.00;101645.38;103154;1304;22478;-59
2022/11/27 03:53:52;;;;;;;75.50;32.50;;;;;;;4.83;100.00;101644.49;103156;1281;22483;-58
2022/11/27 03:56:33;;;;;;;78.60;32.10;;;;;;;4.86;100.00;101640.35;103219;1281;22521;-59
2022/11/27 03:59:09;;;;;;;79.20;30.80;;;;;;;4.89;100.00;101639.06;103196;1298;24322;-59
2022/11/27 04:01:41;;;;;;;73.50;31.30;;;;;;;4.91;100.00;101634.94;103165;1305;22522;-59
2022/11/27 04:04:12;;;;;;;77.70;30.80;;;;;;;4.93;100.00;101631.75;103154;1281;22609;-58
2022/11/27 04:06:45;;;;;;;85.50;32.20;;;;;;;4.96;100.00;101631.11;103146;1289;25516;-58
2022/11/27 04:09:17;;;;;;;76.40;30.70;;;;;;;4.96;100.00;101633.41;103128;1304;22465;-58
2022/11/27 04:11:48;;;;;;;78.30;33.10;;;;;;;4.96;100.00;101629.36;103306;1273;24414;-58
2022/11/27 04:14:20;;;;;;;85.90;34.00;;;;;;;4.97;100.00;101630.30;103185;1285;22583;-58
2022/11/27 04:16:51;;;;;;;82.40;34.40;;;;;;;4.98;100.00;101630.95;103296;1305;22600;-58
2022/11/27 04:19:22;;;;;;;89.20;34.10;;;;;;;5.00;100.00;101625.30;103151;1281;22486;-58
2022/11/27 04:21:54;;;;;;;85.40;32.90;;;;;;;5.00;100.00;101623.88;103125;1277;22474;-58
2022/11/27 04:24:25;;;;;;;82.00;32.20;;;;;;;5.01;100.00;101618.66;103135;1304;22473;-58
2022/11/27 04:26:56;;;;;;;81.90;35.10;;;;;;;5.00;100.00;101622.31;103134;1274;25781;-59
2022/11/27 04:29:28;;;;;;;87.50;32.70;;;;;;;4.99;100.00;101625.30;103182;1305;22492;-59
2022/11/27 04:32:00;;;;;;;88.60;34.70;;;;;;;4.99;100.00;101626.02;103306;1277;25400;-58
2022/11/27 04:34:31;;;;;;;77.80;30.90;;;;;;;5.00;100.00;101623.25;103472;1274;25317;-57
2022/11/27 04:37:02;;;;;;;88.00;34.80;;;;;;;5.00;100.00;101617.71;103141;1274;22470;-59
2022/11/27 04:39:34;;;;;;;90.40;35.00;;;;;;;5.01;100.00;101610.59;103125;1281;22468;-59
2022/11/27 04:42:05;;;;;;;91.60;35.30;;;;;;;5.03;100.00;101608.21;103152;1274;22549;-58
2022/11/27 04:44:37;;;;;;;83.90;31.20;;;;;;;5.03;100.00;101609.54;103281;1281;22509;-60
2022/11/27 04:47:08;;;;;;;87.70;33.90;;;;;;;5.03;100.00;101604.63;103284;1305;24265;-58
2022/11/27 04:49:39;;;;;;;99.30;37.20;;;;;;;5.04;100.00;101600.20;103093;1297;24383;-58
2022/11/27 04:52:11;;;;;;;85.50;33.10;;;;;;;5.03;100.00;101599.89;103171;1299;22619;-59
2022/11/27 04:54:42;;;;;;;93.60;34.00;;;;;;;5.03;100.00;101601.57;103202;1281;22487;-59
2022/11/27 04:57:14;;;;;;;85.10;32.00;;;;;;;5.02;100.00;101605.36;103155;1275;25354;-58
2022/11/27 04:59:46;;;;;;;83.90;33.40;;;;;;;5.02;100.00;101606.47;103275;1303;22485;-58
2022/11/27 05:02:17;;;;;;;77.60;31.20;;;;;;;5.04;100.00;101602.58;103182;1280;24416;-57
2022/11/27 05:04:49;;;;;;;87.00;31.30;;;;;;;5.03;100.00;101598.71;103182;1280;24147;-57
2022/11/27 05:07:20;;;;;;;81.40;31.20;;;;;;;5.04;100.00;101598.15;103143;1282;25492;-60
2022/11/27 05:09:52;;;;;;;84.40;32.80;;;;;;;5.03;100.00;101600.75;103055;1281;22470;-58
2022/11/27 05:12:23;;;;;;;83.10;32.50;;;;;;;5.03;100.00;101601.94;103159;1281;24415;-59
2022/11/27 05:14:55;;;;;;;83.30;30.60;;;;;;;5.04;100.00;101601.63;103166;1275;26515;-58
2022/11/27 05:17:26;;;;;;;86.10;33.60;;;;;;;5.05;100.00;101607.86;103174;1297;24301;-58
2022/11/27 05:19:57;;;;;;;90.10;34.20;;;;;;;5.06;100.00;101609.76;103190;1305;22477;-59
2022/11/27 05:22:28;;;;;;;82.50;31.80;;;;;;;5.05;100.00;101610.95;103412;1279;22598;-59
2022/11/27 05:25:00;;;;;;;79.30;30.70;;;;;;;5.04;100.00;101612.40;103094;1287;22486;-60
2022/11/27 05:27:32;;;;;;;93.80;35.40;;;;;;;5.02;100.00;101612.16;103285;1291;24534;-58
2022/11/27 05:30:03;;;;;;;88.40;33.50;;;;;;;5.01;100.00;101615.09;103361;1273;22474;-61
2022/11/27 05:32:34;;;;;;;86.40;32.10;;;;;;;5.00;100.00;101617.48;103213;1281;24244;-57
2022/11/27 05:35:06;;;;;;;90.50;32.10;;;;;;;4.97;100.00;101621.77;103240;1306;24310;-61
2022/11/27 05:37:38;;;;;;;77.50;30.90;;;;;;;4.98;100.00;101628.56;103247;1305;22473;-59
2022/11/27 05:40:12;;;;;;;76.60;31.40;;;;;;;4.97;100.00;101625.88;103195;1283;25320;-58
2022/11/27 05:42:44;;;;;;;85.00;31.40;;;;;;;4.96;100.00;101621.38;103172;1282;24387;-58
2022/11/27 05:45:16;;;;;;;84.70;30.90;;;;;;;4.94;100.00;101623.30;103157;1291;24314;-60
2022/11/27 05:47:47;;;;;;;88.90;32.80;;;;;;;4.92;100.00;101631.92;103194;1297;22541;-61
2022/11/27 05:50:19;;;;;;;97.50;33.30;;;;;;;4.91;100.00;101635.89;103162;1306;23039;-59
2022/11/27 05:52:51;;;;;;;90.40;31.60;;;;;;;4.92;100.00;101637.38;103247;1277;22950;-58
2022/11/27 05:55:22;;;;;;;81.40;31.90;;;;;;;4.92;100.00;101644.09;103178;1284;25316;-59
2022/11/27 05:57:53;;;;;;;95.10;34.00;;;;;;;4.94;100.00;101646.61;103159;1280;22521;-60
2022/11/27 06:00:26;;;;;;;88.20;30.80;;;;;;;4.96;100.00;101645.34;103206;1277;22461;-58
2022/11/27 06:02:58;;;;;;;85.80;34.60;;;;;;;4.97;100.00;101643.83;103247;1281;25341;-60
2022/11/27 06:05:29;;;;;;;89.00;34.50;;;;;;;4.97;100.00;101635.43;103047;1280;22466;-58
2022/11/27 06:08:01;;;;;;;91.00;33.80;;;;;;;4.98;100.00;101633.31;103133;1282;26613;-60
2022/11/27 06:10:32;;;;;;;91.80;34.30;;;;;;;4.98;100.00;101635.29;103226;1278;22481;-61
2022/11/27 06:13:03;;;;;;;93.30;36.70;;;;;;;4.98;100.00;101641.14;103096;1281;24319;-58
2022/11/27 06:15:38;;;;;;;89.00;33.70;;;;;;;4.98;100.00;101643.11;103092;1302;23327;-58
2022/11/27 06:18:10;;;;;;;93.50;35.70;;;;;;;4.99;100.00;101640.18;103121;1284;22491;-58
2022/11/27 06:20:43;;;;;;;87.90;32.80;;;;;;;4.99;100.00;101640.80;103115;1282;22477;-63
2022/11/27 06:23:14;;;;;;;87.90;32.70;;;;;;;4.99;100.00;101644.67;103359;1283;22486;-58
2022/11/27 06:25:46;;;;;;;86.40;32.80;;;;;;;5.00;100.00;101652.91;103129;1306;22517;-58
2022/11/27 06:28:17;;;;;;;81.70;31.40;;;;;;;5.01;100.00;101656.92;103156;1306;25317;-58
2022/11/27 06:30:49;;;;;;;78.90;30.70;;;;;;;5.01;100.00;101662.79;103207;1290;25327;-58
2022/11/27 06:33:21;;;;;;;88.40;30.50;;;;;;;5.00;100.00;101661.84;103221;1281;22473;-57
2022/11/27 06:35:55;;;;;;;86.40;30.90;;;;;;;5.01;100.00;101663.50;103125;1297;22842;-59
2022/11/27 06:38:26;;;;;;;95.40;33.30;;;;;;;5.01;100.00;101661.28;103141;1304;22467;-56
2022/11/27 06:41:01;;;;;;;89.00;33.10;;;;;;;5.02;100.00;101665.39;103105;1301;22734;-60
2022/11/27 06:43:33;;;;;;;89.80;30.90;;;;;;;5.03;100.00;101663.08;103317;1279;25356;-58
2022/11/27 06:46:07;;;;;;;91.30;33.60;;;;;;;5.02;100.00;101661.35;103165;1304;25284;-59
2022/11/27 06:48:38;;;;;;;79.40;29.50;;;;;;;5.02;100.00;101665.06;103164;1281;22482;-58
2022/11/27 06:51:14;;;;;;;84.60;31.00;;;;;;;5.03;100.00;101663.23;103214;1281;22469;-60
2022/11/27 06:53:46;;;;;;;90.20;37.10;;;;;;;5.04;100.00;101665.13;103188;1281;25313;-57
2022/11/27 06:56:20;;;;;;;93.60;36.50;;;;;;;5.04;100.00;101666.00;103343;1281;24738;-57
2022/11/27 06:58:54;;;;;;;88.40;36.30;;;;;;;5.06;100.00;101661.16;103303;1306;25324;-58
2022/11/27 07:01:27;;;;;;;98.90;33.80;;;;;;;5.06;100.00;101656.64;103212;1280;22474;-59
2022/11/27 07:03:59;;;;;;;90.30;28.80;;;;;;;5.06;100.00;101655.95;103121;1282;22479;-58
2022/11/27 07:06:30;;;;;;;81.80;32.40;;;;;;;5.04;100.00;101656.52;103133;1281;23958;-57
2022/11/27 07:09:01;;;;;;;219.10;110.80;;;;;;;5.05;100.00;101652.55;103179;1281;24959;-58
2022/11/27 07:11:34;;;;;;;159.80;81.40;;;;;;;5.06;100.00;101645.02;103271;1280;22470;-57
2022/11/27 07:14:06;;;;;;;122.50;53.50;;;;;;;5.05;100.00;101649.86;103179;1293;25361;-55
2022/11/27 07:16:38;;;;;;;97.20;39.60;;;;;;;5.01;100.00;101654.17;103320;1305;22613;-54
2022/11/27 07:19:10;;;;;;;97.20;36.70;;;;;;;5.00;100.00;101657.48;103246;1282;24240;-58
2022/11/27 07:21:42;;;;;;;94.90;33.40;;;;;;;5.00;100.00;101660.96;103337;1297;22504;-57
2022/11/27 07:24:13;;;;;;;79.50;28.80;;;;;;;5.01;100.00;101660.57;103307;1278;25317;-58
2022/11/27 07:26:45;;;;;;;84.40;26.50;;;;;;;5.00;100.00;101659.94;103363;1280;22939;-57
2022/11/27 07:29:16;;;;;;;70.60;27.40;;;;;;;5.00;100.00;101654.09;103172;1280;24426;-58
2022/11/27 07:31:49;;;;;;;76.30;28.10;;;;;;;5.01;100.00;101655.11;103203;1305;22495;-58
2022/11/27 07:34:21;;;;;;;70.00;25.90;;;;;;;5.04;100.00;101646.77;103232;1280;24220;-56
2022/11/27 07:36:53;;;;;;;83.20;28.10;;;;;;;5.07;100.00;101641.77;103283;1288;24024;-58
2022/11/27 07:39:24;;;;;;;79.70;28.20;;;;;;;5.09;100.00;101639.00;103268;1281;23013;-56
2022/11/27 07:41:56;;;;;;;68.80;25.70;;;;;;;5.09;100.00;101642.23;103219;1282;22492;-58
2022/11/27 07:44:28;;;;;;;64.20;25.80;;;;;;;5.10;100.00;101646.89;103199;1299;22473;-58
2022/11/27 07:47:00;;;;;;;65.60;25.10;;;;;;;5.12;100.00;101649.23;103190;1284;26540;-60
2022/11/27 07:49:32;;;;;;;64.30;25.70;;;;;;;5.15;100.00;101648.84;103318;1287;23886;-58
2022/11/27 07:52:04;;;;;;;64.90;23.90;;;;;;;5.17;100.00;101651.19;103409;1278;25353;-58
2022/11/27 07:54:35;;;;;;;59.50;22.70;;;;;;;5.20;100.00;101650.77;103189;1274;22466;-58
2022/11/27 07:57:06;;;;;;;65.00;23.70;;;;;;;5.20;100.00;101650.77;103134;1282;22537;-58
2022/11/27 07:59:38;;;;;;;59.60;20.90;;;;;;;5.21;100.00;101647.52;103210;1288;25415;-58
2022/11/27 08:02:13;;;;;;;59.30;22.50;;;;;;;5.22;100.00;101649.48;103303;1305;22473;-59
2022/11/27 08:04:44;;;;;;;59.60;23.90;;;;;;;5.24;100.00;101642.81;103234;1278;22467;-59
2022/11/27 08:07:16;;;;;;;60.70;23.60;;;;;;;5.27;100.00;101642.56;103250;1280;22478;-58
2022/11/27 08:09:47;;;;;;;68.00;25.90;;;;;;;5.28;100.00;101641.59;103313;1273;24409;-57
2022/11/27 08:12:21;;;;;;;57.60;22.40;;;;;;;5.29;100.00;101639.21;103237;1282;25365;-59
2022/11/27 08:14:52;;;;;;;59.10;22.90;;;;;;;5.30;100.00;101639.52;103240;1274;22497;-58
2022/11/27 08:17:24;;;;;;;55.30;21.90;;;;;;;5.32;100.00;101640.37;103185;1282;22544;-57
2022/11/27 08:19:56;;;;;;;61.60;23.40;;;;;;;5.31;100.00;101637.77;103289;1298;24365;-57
2022/11/27 08:22:28;;;;;;;53.20;21.00;;;;;;;5.33;100.00;101635.15;103144;1297;22470;-57
2022/11/27 08:25:00;;;;;;;52.60;20.90;;;;;;;5.34;100.00;101637.90;103200;1279;22491;-58
2022/11/27 08:27:32;;;;;;;53.60;19.70;;;;;;;5.36;100.00;101639.88;103181;1280;25288;-59
2022/11/27 08:30:05;;;;;;;49.60;19.00;;;;;;;5.37;100.00;101644.92;103146;1280;22479;-57
2022/11/27 08:32:38;;;;;;;49.80;18.10;;;;;;;5.38;100.00;101648.30;103165;1286;25319;-57
2022/11/27 08:35:11;;;;;;;52.80;20.70;;;;;;;5.40;100.00;101646.63;103139;1281;22486;-57
2022/11/27 08:37:42;;;;;;;49.00;18.60;;;;;;;5.39;100.00;101646.55;103172;1287;22501;-57
2022/11/27 08:40:15;;;;;;;52.10;18.40;;;;;;;5.41;100.00;101646.69;103184;1286;22518;-58
2022/11/27 08:42:46;;;;;;;55.80;23.10;;;;;;;5.43;100.00;101644.39;103182;1297;22491;-57
2022/11/27 08:45:18;;;;;;;56.70;22.40;;;;;;;5.45;100.00;101649.11;103102;1302;22616;-57
2022/11/27 08:47:49;;;;;;;51.70;19.60;;;;;;;5.45;100.00;101650.54;103195;1294;22509;-54
2022/11/27 08:50:20;;;;;;;61.10;23.90;;;;;;;5.46;100.00;101650.77;103160;1281;22474;-58
2022/11/27 08:52:52;;;;;;;61.70;23.90;;;;;;;5.50;100.00;101651.83;103216;1287;25252;-58
2022/11/27 08:55:23;;;;;;;70.40;25.90;;;;;;;5.52;100.00;101651.19;103163;1282;25375;-63
2022/11/27 08:57:55;;;;;;;51.30;20.50;;;;;;;5.53;100.00;101648.24;103140;1280;24315;-59
2022/11/27 09:00:26;;;;;;;55.20;19.90;;;;;;;5.53;100.00;101654.18;103210;1280;22486;-59
2022/11/27 09:02:58;;;;;;;58.80;23.00;;;;;;;5.56;100.00;101657.88;103199;1291;24503;-59
2022/11/27 09:05:30;;;;;;;59.70;24.50;;;;;;;5.60;100.00;101659.27;103177;1297;23201;-60
2022/11/27 09:08:04;;;;;;;57.90;22.80;;;;;;;5.62;100.00;101656.69;103218;1281;22471;-60
2022/11/27 09:10:36;;;;;;;55.00;22.30;;;;;;;5.65;100.00;101654.61;103225;1290;22477;-60
2022/11/27 09:13:08;;;;;;;48.70;21.60;;;;;;;5.67;100.00;101652.29;103110;1280;22474;-59
2022/11/27 09:15:39;;;;;;;45.90;18.90;;;;;;;5.69;100.00;101653.85;103138;1280;25280;-60
2022/11/27 09:18:12;;;;;;;41.40;17.20;;;;;;;5.70;100.00;101650.29;103087;1280;25495;-60
2022/11/27 09:20:43;;;;;;;41.00;16.30;;;;;;;5.72;100.00;101641.80;103109;1298;25435;-60
2022/11/27 09:23:14;;;;;;;46.90;18.10;;;;;;;5.75;100.00;101640.90;103009;1274;22640;-57
2022/11/27 09:25:46;;;;;;;43.70;18.10;;;;;;;5.75;100.00;101640.02;103238;1303;25376;-59
2022/11/27 09:28:18;;;;;;;50.10;21.50;;;;;;;5.75;100.00;101641.37;103135;1290;25442;-58
2022/11/27 09:30:54;;;;;;;47.00;19.60;;;;;;;5.80;100.00;101641.55;103224;1279;22470;-58
2022/11/27 09:33:26;;;;;;;52.10;20.20;;;;;;;5.82;100.00;101645.33;103040;1280;22752;-57
2022/11/27 09:35:58;;;;;;;46.10;19.00;;;;;;;5.85;100.00;101643.67;103124;1302;24447;-58
2022/11/27 09:38:30;;;;;;;49.60;20.90;;;;;;;5.85;100.00;101638.92;103187;1292;22484;-59
2022/11/27 09:41:12;;;;;;;42.20;16.80;;;;;;;5.84;100.00;101640.02;103195;1306;22515;-57
2022/11/27 09:43:55;;;;;;;51.90;20.40;;;;;;;5.83;100.00;101631.31;103119;1281;24212;-58
2022/11/27 09:46:32;;;;;;;53.60;21.10;;;;;;;5.84;100.00;101629.57;103125;1281;22595;-58
2022/11/27 09:49:07;;;;;;;50.00;21.40;;;;;;;5.85;100.00;101633.61;103089;1287;24140;-58
2022/11/27 09:51:45;;;;;;;51.10;22.80;;;;;;;5.87;100.00;101628.67;103181;1280;22477;-58
2022/11/27 09:54:20;;;;;;;48.60;20.70;;;;;;;5.87;100.00;101624.86;102958;1286;24378;-57
2022/11/27 09:56:55;;;;;;;40.80;18.60;;;;;;;5.87;100.00;101623.92;103186;1282;24265;-58
2022/11/27 09:59:33;;;;;;;39.20;17.20;;;;;;;5.85;100.00;101620.46;103199;1286;22682;-57
2022/11/27 10:02:12;;;;;;;37.80;15.80;;;;;;;5.86;100.00;101615.95;103890;1283;22591;-58
2022/11/27 10:04:44;;;;;;;37.30;16.10;;;;;;;5.88;100.00;101612.27;103413;1309;23990;-58
2022/11/27 10:07:26;;;;;;;37.70;16.50;;;;;;;5.94;100.00;101606.02;103038;1298;22481;-56
2022/11/27 10:10:10;;;;;;;37.50;17.00;;;;;;;5.99;100.00;101603.66;103170;1296;22497;-57
2022/11/27 10:12:58;;;;;;;41.70;18.10;;;;;;;6.02;100.00;101598.88;103224;1281;24321;-55
2022/11/27 10:15:38;;;;;;;39.00;17.30;;;;;;;6.04;100.00;101598.14;103358;1288;24185;-58
2022/11/27 10:18:15;;;;;;;44.50;18.60;;;;;;;6.05;100.00;101594.48;103135;1283;23892;-57
2022/11/27 10:20:50;;;;;;;45.00;19.60;;;;;;;6.06;100.00;101587.89;103036;1278;22467;-58
2022/11/27 10:23:34;;;;;;;42.30;19.10;;;;;;;6.10;100.00;101583.33;102915;1286;22547;-58
2022/11/27 10:26:11;;;;;;;42.30;20.30;;;;;;;6.14;100.00;101572.75;103050;1287;25443;-58
2022/11/27 10:28:50;;;;;;;40.40;18.00;;;;;;;6.15;100.00;101566.86;102937;1281;25380;-58
2022/11/27 10:31:31;;;;;;;41.80;17.70;;;;;;;6.16;100.00;101562.09;103090;1274;22718;-57
2022/11/27 10:34:05;;;;;;;47.60;20.50;;;;;;;6.17;100.00;101567.70;103057;1282;25393;-57
2022/11/27 10:36:41;;;;;;;44.60;19.80;;;;;;;6.19;100.00;101574.09;103067;1274;22518;-55
2022/11/27 10:39:16;;;;;;;45.10;19.80;;;;;;;6.20;100.00;101574.79;103007;1281;22527;-58
2022/11/27 10:41:55;;;;;;;34.90;16.00;;;;;;;6.19;100.00;101573.61;103357;1280;23085;-58
2022/11/27 10:44:32;;;;;;;36.00;16.40;;;;;;;6.20;100.00;101576.93;103371;1304;22494;-58
2022/11/27 10:47:08;;;;;;;34.60;15.30;;;;;;;6.22;100.00;101569.77;103241;1277;22490;-59
2022/11/27 10:49:41;;;;;;;37.50;16.00;;;;;;;6.26;100.00;101569.79;103073;1285;22464;-57
2022/11/27 10:52:17;;;;;;;38.80;16.80;;;;;;;6.28;100.00;101569.30;102986;1283;22474;-57
2022/11/27 10:54:54;;;;;;;40.40;18.90;;;;;;;6.27;100.00;101560.28;103212;1293;22518;-58
2022/11/27 10:57:48;;;;;;;41.30;19.60;;;;;;;6.29;100.00;101560.65;103285;1282;22635;-58
2022/11/27 11:00:23;;;;;;;40.80;17.80;;;;;;;6.31;100.00;101559.44;103137;1279;22563;-55
2022/11/27 11:03:04;;;;;;;46.00;20.90;;;;;;;6.33;100.00;101551.73;103115;1280;22559;-56
2022/11/27 11:05:36;;;;;;;46.60;21.20;;;;;;;6.35;100.00;101550.58;103046;1281;24297;-56
2022/11/27 11:08:17;;;;;;;55.60;25.80;;;;;;;6.36;100.00;101546.36;103210;1281;24066;-58
2022/11/27 11:10:57;;;;;;;56.20;25.20;;;;;;;6.38;100.00;101550.27;103280;1288;22471;-57
2022/11/27 11:13:31;;;;;;;50.80;22.80;;;;;;;6.42;100.00;101543.81;103685;1281;22484;-56
2022/11/27 11:16:06;;;;;;;51.40;23.20;;;;;;;6.45;100.00;101538.77;102983;1305;24310;-57
2022/11/27 11:18:45;;;;;;;39.10;19.00;;;;;;;6.51;100.00;101536.61;103145;1280;22487;-58
2022/11/27 11:21:19;;;;;;;49.50;22.80;;;;;;;6.55;100.00;101533.05;103183;1280;24242;-58
2022/11/27 11:23:57;;;;;;;41.10;18.40;;;;;;;6.56;100.00;101532.80;103333;1282;25404;-57
2022/11/27 11:26:32;;;;;;;38.00;16.00;;;;;;;6.55;100.00;101529.17;103661;1280;24217;-57
2022/11/27 11:29:21;;;;;;;49.50;22.20;;;;;;;6.57;100.00;101527.41;103012;1280;25423;-58
2022/11/27 11:31:55;;;;;;;47.30;19.60;;;;;;;6.63;100.00;101533.17;103635;1295;22525;-58